Time;durP1;ratioP1;P1;durP2;ratioP2;P2;SDS_P1;SDS_P2;PMS_P1;PMS_P2;Temp;Humidity;BMP_temperature;BMP_pressure;BME280_temperature;BME280_humidity;BME280_pressure;Samples;Min_cycle;Max_cycle;Signal;HPM_P1;HPM_P2
2023/07/17 00:00:19;;;;;;;8.48;3.63;;;;;;;18.13;88.01;100951.34;5010815;28;20409;-61
2023/07/17 00:02:45;;;;;;;12.48;3.70;;;;;;;18.10;88.11;100936.34;5010902;28;21038;-59
2023/07/17 00:05:12;;;;;;;6.82;3.58;;;;;;;18.12;89.01;100938.84;5010571;28;20054;-59
2023/07/17 00:07:40;;;;;;;6.72;3.22;;;;;;;18.18;90.27;100951.63;5009486;28;20046;-61
2023/07/17 00:10:10;;;;;;;10.13;3.50;;;;;;;18.16;89.44;100945.56;5010563;28;20092;-61
2023/07/17 00:12:37;;;;;;;7.75;3.60;;;;;;;18.15;91.16;100944.72;5009834;28;20052;-60
2023/07/17 00:15:05;;;;;;;8.90;3.58;;;;;;;18.13;90.78;100941.31;5010631;28;20421;-60
2023/07/17 00:17:33;;;;;;;6.57;3.58;;;;;;;18.13;91.86;100943.22;5010099;28;20132;-61
2023/07/17 00:20:00;;;;;;;6.95;3.70;;;;;;;18.09;93.48;100935.47;5010466;28;20152;-59
2023/07/17 00:22:30;;;;;;;9.25;4.30;;;;;;;18.05;92.72;100933.38;5009323;28;20045;-60
2023/07/17 00:24:56;;;;;;;10.13;4.43;;;;;;;18.05;92.21;100939.63;5008989;28;20058;-60
2023/07/17 00:27:24;;;;;;;8.57;3.80;;;;;;;18.03;92.80;100930.88;5009817;28;20142;-61
2023/07/17 00:29:50;;;;;;;7.75;2.90;;;;;;;18.02;95.47;100941.94;5008834;28;20054;-60
2023/07/17 00:32:17;;;;;;;7.13;3.45;;;;;;;18.11;96.22;100931.75;5027263;28;20379;-60
2023/07/17 00:34:44;;;;;;;6.43;3.00;;;;;;;18.18;95.76;100935.34;5028184;28;20099;-59
2023/07/17 00:37:12;;;;;;;9.38;3.47;;;;;;;18.28;93.75;100939.31;5028626;28;20103;-60
2023/07/17 00:39:38;;;;;;;10.18;3.92;;;;;;;18.16;94.06;100926.53;5028031;28;20049;-60
2023/07/17 00:42:05;;;;;;;7.85;3.78;;;;;;;18.08;94.56;100922.13;5029201;28;20053;-60
2023/07/17 00:44:32;;;;;;;8.13;4.13;;;;;;;17.99;95.92;100934.19;5028124;28;20053;-60
2023/07/17 00:46:59;;;;;;;7.57;4.13;;;;;;;17.89;96.79;100940.03;5028881;28;20408;-61
2023/07/17 00:49:28;;;;;;;9.02;4.07;;;;;;;17.76;97.99;100934.53;5028846;28;20045;-59
2023/07/17 00:51:56;;;;;;;6.68;4.15;;;;;;;17.70;99.27;100938.06;5029650;28;20073;-59
2023/07/17 00:54:23;;;;;;;10.10;3.88;;;;;;;17.72;100.00;100944.13;5029125;28;20076;-61
2023/07/17 00:56:50;;;;;;;7.35;3.85;;;;;;;17.68;100.00;100940.97;5027150;28;20091;-59
2023/07/17 00:59:17;;;;;;;9.15;3.58;;;;;;;17.62;100.00;100933.66;5028262;28;20115;-59
2023/07/17 01:01:44;;;;;;;12.95;4.30;;;;;;;17.51;99.01;100932.34;5028343;28;20049;-60
2023/07/17 01:04:11;;;;;;;8.73;3.58;;;;;;;17.50;97.90;100924.41;5028049;28;20069;-61
2023/07/17 01:10:25;;;;;;;7.85;3.90;;;;;;;17.42;90.92;100928.13;5029345;28;20132;-60
2023/07/17 01:12:52;;;;;;;7.00;3.40;;;;;;;17.47;96.22;100925.63;5028210;28;20547;-60
2023/07/17 01:15:18;;;;;;;6.18;3.70;;;;;;;17.49;96.02;100929.00;5027943;28;20065;-60
2023/07/17 01:17:45;;;;;;;5.63;3.55;;;;;;;17.42;93.40;100922.69;5028267;28;20037;-61
2023/07/17 01:20:11;;;;;;;7.97;3.75;;;;;;;17.39;93.65;100922.25;5027839;28;20128;-60
2023/07/17 01:22:59;;;;;;;8.07;3.65;;;;;;;17.39;95.74;100924.97;5027644;28;20512;-60
2023/07/17 01:25:26;;;;;;;8.90;3.63;;;;;;;17.37;96.05;100917.00;4988111;28;1151899;-60
2023/07/17 01:27:53;;;;;;;9.50;3.42;;;;;;;17.34;96.75;100921.00;5029381;28;20059;-60
2023/07/17 01:30:21;;;;;;;7.78;3.63;;;;;;;17.32;96.95;100908.63;5025575;28;20509;-60
2023/07/17 01:32:47;;;;;;;10.52;3.70;;;;;;;17.33;97.86;100913.00;5008939;28;20119;-60
2023/07/17 01:35:15;;;;;;;7.68;4.03;;;;;;;17.38;98.60;100916.00;5009561;28;20515;-61
2023/07/17 01:37:42;;;;;;;9.10;3.38;;;;;;;17.32;98.93;100919.47;5009379;28;20104;-60
2023/07/17 01:40:10;;;;;;;10.75;4.28;;;;;;;17.30;99.56;100919.69;5009462;28;20053;-60
2023/07/17 01:42:37;;;;;;;7.53;3.85;;;;;;;17.26;100.00;100917.56;5009358;28;20107;-60
2023/07/17 01:45:05;;;;;;;10.95;3.83;;;;;;;17.19;98.32;100911.25;5008074;28;20080;-60
2023/07/17 01:47:32;;;;;;;6.47;3.50;;;;;;;17.16;99.52;100914.38;5008398;28;20042;-61
2023/07/17 01:49:59;;;;;;;8.10;3.80;;;;;;;17.19;97.37;100914.81;5008114;28;20064;-60
2023/07/17 01:52:25;;;;;;;10.35;4.13;;;;;;;17.18;99.44;100915.00;5008061;28;20050;-60
2023/07/17 01:54:52;;;;;;;6.45;3.83;;;;;;;17.17;96.60;100925.03;5008950;28;20054;-60
2023/07/17 01:57:18;;;;;;;7.50;4.00;;;;;;;17.03;94.77;100924.09;5007622;28;20069;-60
2023/07/17 01:59:45;;;;;;;10.73;3.95;;;;;;;16.98;95.39;100921.13;5008364;28;20093;-60
2023/07/17 02:02:11;;;;;;;20.40;4.10;;;;;;;16.93;94.70;100929.03;5007987;28;20105;-60
2023/07/17 02:04:38;;;;;;;4.90;3.40;;;;;;;16.90;97.06;100924.00;5008799;28;20050;-59
2023/07/17 02:07:05;;;;;;;9.15;4.05;;;;;;;16.82;98.12;100927.69;5008766;28;20446;-59
2023/07/17 02:09:31;;;;;;;9.80;3.90;;;;;;;16.82;100.00;100926.88;5009224;28;20077;-59
2023/07/17 02:11:58;;;;;;;9.35;3.72;;;;;;;16.78;98.65;100931.84;5008348;28;20046;-60
2023/07/17 02:14:24;;;;;;;6.47;3.40;;;;;;;16.90;100.00;100937.56;5008994;28;20041;-61
2023/07/17 02:16:51;;;;;;;9.32;3.97;;;;;;;17.19;100.00;100943.78;5008458;28;20050;-60
2023/07/17 02:19:19;;;;;;;7.25;3.58;;;;;;;17.03;99.07;100943.06;5008398;28;20041;-59
2023/07/17 02:21:45;;;;;;;9.15;3.58;;;;;;;16.90;99.90;100932.13;5007891;28;20046;-60
2023/07/17 02:24:12;;;;;;;6.20;3.92;;;;;;;16.70;100.00;100925.72;5008360;28;20100;-62
2023/07/17 02:26:38;;;;;;;12.05;4.65;;;;;;;16.64;100.00;100925.47;5007843;28;20066;-60
2023/07/17 02:29:05;;;;;;;9.00;3.72;;;;;;;16.79;100.00;100940.81;5008192;28;20046;-60
2023/07/17 02:31:31;;;;;;;7.75;3.55;;;;;;;16.94;100.00;100952.38;5021353;28;20555;-61
2023/07/17 02:33:58;;;;;;;10.15;3.67;;;;;;;16.85;98.94;100937.28;5028238;28;20497;-61
2023/07/17 02:36:24;;;;;;;9.80;3.72;;;;;;;16.66;100.00;100923.38;5028511;28;20095;-60
2023/07/17 02:38:51;;;;;;;10.38;3.85;;;;;;;16.52;100.00;100920.78;5027277;28;20045;-60
2023/07/17 02:41:19;;;;;;;6.15;4.15;;;;;;;16.46;100.00;100933.16;5027831;28;20095;-60
2023/07/17 02:43:46;;;;;;;6.28;3.60;;;;;;;16.53;100.00;100930.56;5027777;28;20045;-59
2023/07/17 02:46:12;;;;;;;9.32;3.80;;;;;;;16.75;100.00;100939.50;5028053;28;20096;-60
2023/07/17 02:48:39;;;;;;;7.07;3.70;;;;;;;16.75;100.00;100937.66;5027826;28;20128;-60
2023/07/17 02:51:05;;;;;;;10.32;4.40;;;;;;;16.60;100.00;100934.16;5027724;28;20065;-59
2023/07/17 02:53:32;;;;;;;5.65;3.53;;;;;;;16.47;100.00;100937.56;5028036;28;20091;-61
2023/07/17 02:55:58;;;;;;;6.57;3.55;;;;;;;16.69;100.00;100949.25;5027869;28;20049;-60
2023/07/17 02:58:25;;;;;;;10.93;4.10;;;;;;;16.62;100.00;100943.78;5029303;28;20099;-59
2023/07/17 03:00:51;;;;;;;9.23;3.83;;;;;;;16.46;100.00;100940.47;5030192;28;20049;-60
2023/07/17 03:03:18;;;;;;;6.95;3.40;;;;;;;16.39;100.00;100945.81;5031361;28;20049;-61
2023/07/17 03:05:44;;;;;;;6.88;4.10;;;;;;;16.29;100.00;100948.00;5030983;28;20485;-60
2023/07/17 03:08:11;;;;;;;10.38;4.03;;;;;;;16.23;100.00;100954.16;5031091;28;20056;-60
2023/07/17 03:10:37;;;;;;;9.88;4.13;;;;;;;16.13;100.00;100947.22;5031346;28;20485;-61
2023/07/17 03:13:04;;;;;;;16.55;4.53;;;;;;;16.08;100.00;100938.81;5030989;28;20049;-59
2023/07/17 03:15:30;;;;;;;10.05;4.82;;;;;;;16.08;100.00;100946.94;5031503;28;20119;-60
2023/07/17 03:17:58;;;;;;;10.90;4.20;;;;;;;16.07;100.00;100941.72;5030984;28;20050;-59
2023/07/17 03:20:26;;;;;;;5.85;3.83;;;;;;;16.05;100.00;100933.78;5030986;28;20041;-60
2023/07/17 03:22:53;;;;;;;8.45;4.13;;;;;;;16.04;100.00;100939.41;5030579;28;20468;-59
2023/07/17 03:25:19;;;;;;;11.10;3.95;;;;;;;16.01;100.00;100937.91;5030351;28;20600;-59
2023/07/17 03:27:47;;;;;;;10.30;4.70;;;;;;;16.02;100.00;100934.19;5031563;28;20080;-60
2023/07/17 03:30:14;;;;;;;13.70;4.80;;;;;;;15.98;100.00;100945.56;5028904;28;20104;-60
2023/07/17 03:32:40;;;;;;;8.93;4.22;;;;;;;15.92;100.00;100930.97;5010973;28;20084;-59
2023/07/17 03:35:07;;;;;;;7.88;4.40;;;;;;;15.95;100.00;100936.81;5011450;28;20049;-59
2023/07/17 03:37:34;;;;;;;8.38;4.40;;;;;;;15.93;100.00;100943.44;5010916;28;20045;-59
2023/07/17 03:40:00;;;;;;;9.38;4.28;;;;;;;15.88;100.00;100943.16;5011149;28;20520;-59
2023/07/17 03:42:27;;;;;;;10.55;3.90;;;;;;;15.83;100.00;100951.84;5011116;28;20052;-60
2023/07/17 03:44:54;;;;;;;16.33;4.40;;;;;;;15.91;100.00;100953.59;5010623;28;20386;-60
2023/07/17 03:47:20;;;;;;;8.73;4.40;;;;;;;15.95;100.00;100946.78;5011288;28;20529;-61
2023/07/17 03:49:48;;;;;;;7.53;3.97;;;;;;;16.02;100.00;100955.84;5010365;28;20413;-60
2023/07/17 03:52:15;;;;;;;9.60;4.32;;;;;;;15.98;100.00;100957.22;5010003;28;20050;-60
2023/07/17 03:54:42;;;;;;;9.68;4.55;;;;;;;15.71;100.00;100948.81;5010593;28;20417;-60
2023/07/17 03:57:08;;;;;;;8.90;4.38;;;;;;;15.68;100.00;100956.47;5009677;28;20046;-60
2023/07/17 03:59:54;;;;;;;7.93;4.50;;;;;;;15.64;100.00;100947.88;5010806;28;20049;-61
2023/07/17 04:02:22;;;;;;;6.82;3.83;;;;;;;15.48;100.00;100954.28;5010590;28;20042;-61
2023/07/17 04:04:50;;;;;;;10.02;4.07;;;;;;;15.52;100.00;100957.44;5009838;28;20505;-60
2023/07/17 04:07:17;;;;;;;14.80;5.18;;;;;;;15.44;100.00;100960.25;5009888;28;20045;-60
2023/07/17 04:09:44;;;;;;;8.50;4.60;;;;;;;15.46;100.00;100971.72;5008878;28;20053;-60
2023/07/17 04:12:11;;;;;;;10.00;4.43;;;;;;;15.40;100.00;100973.31;5009695;28;20107;-59
2023/07/17 04:14:38;;;;;;;9.68;4.22;;;;;;;15.54;100.00;100977.03;5009474;28;20042;-60
2023/07/17 04:17:05;;;;;;;8.43;4.30;;;;;;;15.58;100.00;100981.06;5010267;28;20038;-60
2023/07/17 04:19:33;;;;;;;10.75;5.32;;;;;;;15.60;100.00;100978.97;5010127;28;20135;-60
2023/07/17 04:21:59;;;;;;;10.23;4.78;;;;;;;15.50;100.00;100975.75;5010572;28;20042;-59
2023/07/17 04:24:26;;;;;;;12.95;4.60;;;;;;;15.53;100.00;100975.34;5009306;28;20490;-59
2023/07/17 04:26:54;;;;;;;11.90;4.53;;;;;;;15.44;100.00;100974.63;5010461;28;20107;-59
2023/07/17 04:29:24;;;;;;;13.60;4.55;;;;;;;15.51;100.00;100966.59;5010247;28;20434;-60
2023/07/17 04:31:51;;;;;;;8.35;4.55;;;;;;;15.56;100.00;100958.75;5025325;28;20543;-60
2023/07/17 04:34:18;;;;;;;11.85;5.80;;;;;;;15.51;100.00;100955.78;5029861;28;20045;-61
2023/07/17 04:36:44;;;;;;;12.45;4.97;;;;;;;15.52;100.00;100957.44;5029343;28;20078;-61
2023/07/17 04:39:11;;;;;;;11.80;4.78;;;;;;;15.51;100.00;100961.19;5029288;28;20073;-60
2023/07/17 04:41:40;;;;;;;10.23;4.07;;;;;;;15.58;100.00;100964.00;5027938;28;20045;-61
2023/07/17 04:44:07;;;;;;;13.15;5.18;;;;;;;15.47;100.00;100971.53;5028902;28;20068;-60
2023/07/17 04:46:34;;;;;;;11.65;4.82;;;;;;;15.45;100.00;100967.34;5029391;28;20125;-60
2023/07/17 04:49:02;;;;;;;9.05;4.93;;;;;;;15.52;100.00;100970.13;5030160;28;20052;-61
2023/07/17 04:51:29;;;;;;;7.82;4.40;;;;;;;15.63;100.00;100970.53;5027905;28;20046;-61
2023/07/17 04:53:55;;;;;;;11.82;4.93;;;;;;;15.74;100.00;100974.63;5028591;28;20494;-60
2023/07/17 04:56:22;;;;;;;9.50;5.00;;;;;;;15.82;100.00;100962.88;5029288;28;20084;-60
2023/07/17 04:58:48;;;;;;;9.55;4.97;;;;;;;15.92;100.00;100963.44;5029642;28;20399;-60
2023/07/17 05:01:18;;;;;;;11.60;4.50;;;;;;;16.09;100.00;100980.25;5029192;28;20551;-60
2023/07/17 05:03:45;;;;;;;10.65;4.45;;;;;;;16.05;100.00;100974.38;5029036;28;20045;-60
2023/07/17 05:06:11;;;;;;;11.70;4.30;;;;;;;15.97;100.00;100971.78;5028734;28;20465;-60
2023/07/17 05:08:40;;;;;;;10.85;4.55;;;;;;;16.00;100.00;100971.41;5029027;28;20084;-60
2023/07/17 05:11:07;;;;;;;11.73;4.85;;;;;;;15.98;100.00;100967.22;5028943;28;20054;-60
2023/07/17 05:13:34;;;;;;;10.00;5.20;;;;;;;16.03;100.00;100970.22;5029111;28;20485;-60
2023/07/17 05:16:00;;;;;;;11.07;4.75;;;;;;;16.08;100.00;100968.59;5028700;28;20685;-60
2023/07/17 05:18:27;;;;;;;11.10;5.10;;;;;;;16.11;100.00;100983.63;5028508;28;20053;-60
2023/07/17 05:20:53;;;;;;;14.75;5.28;;;;;;;16.09;100.00;100981.13;5028350;28;21446;-60
2023/07/17 05:23:20;;;;;;;14.32;5.63;;;;;;;16.07;100.00;100975.03;5028069;28;20049;-60
2023/07/17 05:25:55;;;;;;;11.80;5.57;;;;;;;16.06;100.00;100988.78;5028942;28;20057;-59
2023/07/17 05:28:22;;;;;;;18.48;4.97;;;;;;;16.07;100.00;100982.31;5029689;28;20049;-60
2023/07/17 05:30:53;;;;;;;8.10;4.82;;;;;;;16.03;100.00;100981.88;5022143;28;20054;-60
2023/07/17 05:33:20;;;;;;;11.93;5.15;;;;;;;16.05;100.00;100985.22;5009460;28;20411;-59
2023/07/17 05:35:47;;;;;;;9.90;4.90;;;;;;;16.04;100.00;100978.13;5008076;28;20058;-60
2023/07/17 05:38:14;;;;;;;10.68;5.03;;;;;;;16.02;100.00;100982.91;5009164;28;20516;-60
2023/07/17 05:40:40;;;;;;;6.65;4.38;;;;;;;15.94;100.00;100988.41;5009108;28;20046;-60
2023/07/17 05:43:08;;;;;;;8.43;4.22;;;;;;;16.06;100.00;100984.19;5008940;28;20061;-59
2023/07/17 05:45:35;;;;;;;13.40;4.55;;;;;;;16.16;100.00;100982.03;5009052;28;20088;-59
2023/07/17 05:48:02;;;;;;;14.15;5.07;;;;;;;16.26;100.00;100989.81;5010033;28;20060;-60
2023/07/17 05:50:29;;;;;;;15.50;5.65;;;;;;;16.28;100.00;100989.66;5009591;28;20112;-59
2023/07/17 05:52:56;;;;;;;13.10;5.18;;;;;;;16.40;100.00;100993.50;5009057;28;20104;-60
2023/07/17 05:55:22;;;;;;;14.30;5.70;;;;;;;16.47;100.00;100986.31;5009862;28;20049;-60
2023/07/17 05:57:49;;;;;;;13.73;4.82;;;;;;;16.58;100.00;100987.72;5009696;28;20042;-61
2023/07/17 06:00:16;;;;;;;14.38;5.03;;;;;;;16.80;100.00;100997.50;5009451;28;20045;-62
2023/07/17 06:02:43;;;;;;;11.45;4.85;;;;;;;16.90;100.00;100991.75;5009947;28;20544;-62
2023/07/17 06:05:10;;;;;;;7.90;4.57;;;;;;;16.90;100.00;100989.88;5008427;28;20042;-60
2023/07/17 06:07:37;;;;;;;14.50;5.32;;;;;;;16.92;100.00;100995.13;5008687;28;20092;-60
2023/07/17 06:10:05;;;;;;;11.43;4.88;;;;;;;17.09;100.00;100988.38;5009619;28;20046;-62
2023/07/17 06:12:32;;;;;;;15.27;4.85;;;;;;;17.35;100.00;100992.34;5010248;28;20053;-61
2023/07/17 06:14:58;;;;;;;14.85;4.80;;;;;;;17.45;96.29;101000.13;5008794;28;20078;-60
2023/07/17 06:17:25;;;;;;;9.10;4.55;;;;;;;17.62;92.91;100992.50;5009407;28;20092;-62
2023/07/17 06:19:51;;;;;;;16.98;4.75;;;;;;;17.77;92.76;100985.06;5009247;28;20520;-60
2023/07/17 06:22:18;;;;;;;7.18;4.18;;;;;;;17.90;88.57;100987.00;5008824;28;20112;-61
2023/07/17 06:24:45;;;;;;;14.60;4.93;;;;;;;18.18;85.65;100992.34;5008985;28;20474;-61
2023/07/17 06:27:12;;;;;;;9.20;5.13;;;;;;;18.45;83.90;100994.09;5009813;28;20073;-63
2023/07/17 06:29:39;;;;;;;9.57;4.47;;;;;;;18.63;80.49;100989.94;5008350;28;20358;-61
2023/07/17 06:32:06;;;;;;;8.43;4.70;;;;;;;18.74;76.38;100994.75;5026080;28;20116;-62
2023/07/17 06:34:33;;;;;;;14.05;4.38;;;;;;;18.83;76.25;101001.69;5032786;28;20494;-60
2023/07/17 06:37:01;;;;;;;10.82;4.50;;;;;;;18.85;76.13;101009.63;5032968;28;20065;-60
2023/07/17 06:39:32;;;;;;;15.48;4.40;;;;;;;18.75;79.92;101013.56;5033030;28;20421;-62
2023/07/17 06:41:59;;;;;;;8.30;4.15;;;;;;;18.85;78.44;101002.28;5032965;28;20076;-61
2023/07/17 06:44:25;;;;;;;14.95;4.70;;;;;;;18.93;76.92;101006.72;5032455;28;20061;-61
2023/07/17 06:46:52;;;;;;;11.40;4.72;;;;;;;18.99;73.80;100995.84;5032438;28;20468;-61
2023/07/17 06:49:18;;;;;;;12.45;4.40;;;;;;;19.29;74.58;100994.59;5032909;28;20041;-61
2023/07/17 06:51:48;;;;;;;9.68;4.38;;;;;;;19.45;71.96;100999.56;5032121;28;20053;-61
2023/07/17 06:54:14;;;;;;;8.75;4.55;;;;;;;19.58;69.70;100998.69;5032246;28;20103;-61
2023/07/17 06:56:42;;;;;;;11.25;3.90;;;;;;;19.62;67.98;101002.66;5031929;28;20073;-60
2023/07/17 06:59:08;;;;;;;11.75;5.15;;;;;;;19.62;66.33;101000.81;5032265;28;20053;-62
2023/07/17 07:01:36;;;;;;;11.38;5.28;;;;;;;19.70;61.97;101002.47;5032321;28;20498;-61
2023/07/17 07:04:03;;;;;;;8.30;4.32;;;;;;;19.72;64.51;101003.09;5032761;28;20136;-61
2023/07/17 07:06:30;;;;;;;11.50;5.00;;;;;;;19.92;63.30;101009.31;5032221;28;20069;-62
2023/07/17 07:08:56;;;;;;;12.40;4.30;;;;;;;20.08;60.86;101010.72;5031952;28;20092;-62
2023/07/17 07:11:24;;;;;;;12.77;4.72;;;;;;;19.95;62.16;101011.59;5031695;28;20112;-62
2023/07/17 07:13:51;;;;;;;11.45;4.93;;;;;;;19.99;61.34;101016.63;5031784;28;20069;-61
2023/07/17 07:16:17;;;;;;;7.82;5.05;;;;;;;20.02;61.21;101016.19;5032556;28;20048;-61
2023/07/17 07:18:44;;;;;;;10.70;6.03;;;;;;;20.14;60.29;101012.59;5032362;28;20055;-61
2023/07/17 07:21:11;;;;;;;12.05;4.65;;;;;;;20.22;59.36;101019.66;5031080;28;20107;-61
2023/07/17 07:23:37;;;;;;;9.07;4.47;;;;;;;20.22;59.38;101019.66;5030617;28;20041;-60
2023/07/17 07:26:04;;;;;;;12.85;5.22;;;;;;;20.55;59.04;101018.66;5032036;28;20049;-61
2023/07/17 07:28:31;;;;;;;10.13;4.63;;;;;;;20.85;56.97;101013.44;5031948;28;20049;-61
2023/07/17 07:30:58;;;;;;;9.93;4.45;;;;;;;21.13;56.27;101008.41;5023821;28;20046;-62
2023/07/17 07:33:24;;;;;;;10.35;4.90;;;;;;;21.52;55.07;101017.25;5012223;28;20057;-61
2023/07/17 07:35:51;;;;;;;11.07;4.40;;;;;;;21.85;54.03;101016.94;5012325;28;20069;-60
2023/07/17 07:38:17;;;;;;;9.02;4.30;;;;;;;22.14;52.80;101028.13;5012203;28;20045;-60
2023/07/17 07:40:45;;;;;;;11.50;4.32;;;;;;;22.48;51.20;101031.28;5012110;28;20054;-62
2023/07/17 07:43:12;;;;;;;42.80;6.47;;;;;;;22.67;49.97;101021.97;5011877;28;20092;-62
2023/07/17 07:45:38;;;;;;;18.15;4.68;;;;;;;22.71;49.43;101025.91;5012186;28;20049;-62
2023/07/17 07:48:06;;;;;;;14.02;4.68;;;;;;;22.71;48.21;101031.38;5012728;28;20050;-60
2023/07/17 07:50:33;;;;;;;13.48;4.55;;;;;;;22.66;48.62;101033.97;5012674;28;20046;-63
2023/07/17 07:53:01;;;;;;;12.05;4.50;;;;;;;22.89;47.49;101040.56;5011932;28;20556;-60
2023/07/17 07:55:27;;;;;;;13.98;4.07;;;;;;;22.84;47.25;101034.94;5011597;28;20088;-62
2023/07/17 07:57:54;;;;;;;12.07;4.65;;;;;;;23.12;46.40;101040.66;5012227;28;20053;-62
2023/07/17 08:00:20;;;;;;;9.73;3.88;;;;;;;23.16;46.59;101047.31;5010260;28;20518;-61
2023/07/17 08:02:49;;;;;;;10.80;4.07;;;;;;;23.41;46.08;101049.81;5011094;28;20045;-62
2023/07/17 08:05:16;;;;;;;12.20;4.25;;;;;;;23.49;45.67;101049.44;5011910;28;20042;-61
2023/07/17 08:07:42;;;;;;;7.60;4.45;;;;;;;23.63;45.59;101039.09;5011892;28;20042;-61
2023/07/17 08:10:09;;;;;;;9.60;4.00;;;;;;;23.72;45.05;101050.53;5011919;28;20045;-61
2023/07/17 08:12:35;;;;;;;10.32;4.22;;;;;;;23.62;45.15;101045.66;5011327;28;20050;-61
2023/07/17 08:15:02;;;;;;;11.23;5.38;;;;;;;23.73;45.04;101043.97;5012170;28;20096;-62
2023/07/17 08:17:29;;;;;;;8.93;4.43;;;;;;;23.97;44.60;101042.88;5010971;28;20060;-61
2023/07/17 08:19:55;;;;;;;8.63;4.38;;;;;;;24.33;43.24;101037.28;5011319;28;20532;-63
2023/07/17 08:22:23;;;;;;;10.73;3.90;;;;;;;24.32;43.46;101046.59;5011105;28;20061;-61
2023/07/17 08:24:49;;;;;;;10.77;4.25;;;;;;;24.38;43.46;101045.63;5010450;28;20059;-62
2023/07/17 08:27:16;;;;;;;12.57;4.00;;;;;;;24.48;42.92;101045.03;5010824;28;20088;-60
2023/07/17 08:29:43;;;;;;;10.13;4.88;;;;;;;24.60;42.64;101043.88;5011329;28;20556;-62
2023/07/17 08:32:12;;;;;;;13.18;4.18;;;;;;;24.86;41.86;101041.59;5028307;28;20045;-62
2023/07/17 08:34:40;;;;;;;8.53;3.40;;;;;;;24.72;41.76;101046.56;5030452;28;20104;-62
2023/07/17 08:37:08;;;;;;;6.85;3.75;;;;;;;24.77;41.10;101041.16;5030495;28;20053;-61
2023/07/17 08:39:34;;;;;;;8.07;3.53;;;;;;;24.44;41.18;101039.19;5030743;28;20417;-61
2023/07/17 08:42:01;;;;;;;16.63;3.92;;;;;;;24.96;40.14;101041.78;5031263;28;20505;-63
2023/07/17 08:44:29;;;;;;;13.50;3.53;;;;;;;25.14;39.69;101036.06;5029990;28;20536;-62
2023/07/17 08:46:56;;;;;;;12.80;4.43;;;;;;;24.97;39.66;101037.09;5030736;28;20045;-64
2023/07/17 08:49:25;;;;;;;8.85;4.15;;;;;;;25.20;38.63;101025.13;5030545;28;20045;-63
2023/07/17 08:51:54;;;;;;;11.02;3.70;;;;;;;24.89;39.55;101041.09;5029928;28;20464;-62
2023/07/17 08:54:21;;;;;;;10.48;4.45;;;;;;;25.14;38.96;101035.22;5030450;28;20471;-61
2023/07/17 08:57:01;;;;;;;8.63;3.35;;;;;;;25.46;38.40;101038.19;5030200;28;20493;-61
2023/07/17 08:59:33;;;;;;;10.18;4.38;;;;;;;25.70;37.97;101035.25;5030684;28;20052;-63
2023/07/17 09:02:02;;;;;;;8.85;3.63;;;;;;;26.30;37.16;101028.88;5030026;28;20077;-63
2023/07/17 09:04:34;;;;;;;10.50;3.80;;;;;;;26.13;37.58;101039.91;5030198;28;20140;-62
2023/07/17 09:07:00;;;;;;;;;;;;;;;26.33;36.43;101026.44;5030486;28;20119;-63
2023/07/17 09:09:27;;;;;;;18.20;4.10;;;;;;;27.06;35.00;101023.28;5030850;28;19968;-64
2023/07/17 09:12:16;;;;;;;12.75;4.28;;;;;;;27.04;36.69;101033.75;5030594;28;20493;-60
2023/07/17 09:14:43;;;;;;;9.15;3.58;;;;;;;26.34;37.06;101024.50;5030565;28;20041;-63
2023/07/17 09:17:10;;;;;;;11.80;3.78;;;;;;;26.51;36.42;101028.00;5028991;28;20045;-63
2023/07/17 09:19:38;;;;;;;10.05;3.85;;;;;;;26.51;36.34;101030.75;5029885;28;20072;-61
2023/07/17 09:22:06;;;;;;;7.55;3.67;;;;;;;26.87;36.24;101028.38;5029815;28;20076;-61
2023/07/17 09:24:34;;;;;;;12.57;3.55;;;;;;;27.14;35.40;101030.22;5029907;28;20049;-61
2023/07/17 09:27:04;;;;;;;10.68;3.40;;;;;;;27.55;33.87;101022.28;5030127;28;20064;-63
2023/07/17 09:29:31;;;;;;;10.75;3.70;;;;;;;27.44;33.36;101033.22;5030802;28;20068;-61
2023/07/17 09:32:13;;;;;;;7.80;3.17;;;;;;;26.76;34.42;101032.97;5012964;28;20505;-62
2023/07/17 09:34:40;;;;;;;10.82;3.85;;;;;;;27.32;33.83;101035.38;5008646;28;20049;-62
2023/07/17 09:37:10;;;;;;;10.65;3.33;;;;;;;27.83;34.00;101023.78;5008485;28;20050;-62
2023/07/17 09:39:38;;;;;;;17.70;6.97;;;;;;;28.02;33.54;101029.72;5008407;28;20100;-62
2023/07/17 09:42:20;;;;;;;8.18;3.80;;;;;;;27.62;33.97;101036.63;5011036;28;20062;-62
2023/07/17 09:44:49;;;;;;;12.82;4.15;;;;;;;27.70;33.24;101036.97;5010148;28;20064;-62
2023/07/17 09:47:15;;;;;;;8.95;3.58;;;;;;;27.80;32.28;101033.44;5009058;28;20497;-64
2023/07/17 09:49:43;;;;;;;7.97;3.65;;;;;;;28.07;32.74;101022.25;5008701;28;20038;-63
2023/07/17 09:52:09;;;;;;;6.20;3.47;;;;;;;29.11;29.91;101019.41;5009313;28;20046;-64
2023/07/17 09:54:38;;;;;;;10.60;3.90;;;;;;;29.46;29.58;101015.78;5009246;28;20450;-62
2023/07/17 09:57:07;;;;;;;10.05;3.60;;;;;;;29.28;31.16;101017.19;5010354;28;20096;-63
2023/07/17 09:59:40;;;;;;;11.38;3.80;;;;;;;29.28;30.78;101017.19;5010271;28;20068;-63
2023/07/17 10:02:15;;;;;;;13.63;3.85;;;;;;;28.15;31.96;101018.16;5009545;28;20188;-64
2023/07/17 10:04:50;;;;;;;11.15;3.88;;;;;;;27.17;33.76;101022.25;5008940;28;20096;-64
2023/07/17 10:07:18;;;;;;;8.90;3.88;;;;;;;26.27;34.99;101016.50;5009293;28;20433;-63
2023/07/17 10:09:48;;;;;;;10.70;4.00;;;;;;;25.64;34.79;101019.78;5012856;28;20042;-62
2023/07/17 10:12:17;;;;;;;12.07;3.65;;;;;;;27.13;33.91;101026.66;5012961;28;20104;-66
2023/07/17 10:14:45;;;;;;;8.43;3.65;;;;;;;28.44;32.22;101018.53;5013116;28;20462;-63
2023/07/17 10:17:32;;;;;;;11.00;3.45;;;;;;;28.21;32.44;101011.53;5014292;28;20053;-64
2023/07/17 10:20:06;;;;;;;10.80;3.70;;;;;;;29.13;31.55;101018.03;5012956;28;20045;-64
2023/07/17 10:22:38;;;;;;;10.68;4.03;;;;;;;29.94;30.14;101015.34;5013142;28;20061;-64
2023/07/17 10:25:18;;;;;;;8.60;3.55;;;;;;;30.04;29.54;101012.56;5012642;28;20053;-63
2023/07/17 10:27:53;;;;;;;10.60;3.40;;;;;;;30.62;28.79;101006.44;5012886;28;20117;-64
2023/07/17 10:30:28;;;;;;;12.57;3.83;;;;;;;31.47;26.62;101014.25;5015427;28;20477;-64
2023/07/17 10:33:14;;;;;;;5.43;2.92;;;;;;;31.23;28.52;101017.84;5032465;28;20563;-63
2023/07/17 10:35:51;;;;;;;9.45;3.33;;;;;;;30.50;28.94;101009.53;5032501;28;20063;-63
2023/07/17 10:38:23;;;;;;;9.25;3.40;;;;;;;28.95;30.46;101021.38;5032753;28;20111;-63
2023/07/17 10:41:00;;;;;;;8.80;3.55;;;;;;;26.76;32.90;101023.88;5033103;28;20053;-65
2023/07/17 10:43:27;;;;;;;6.93;3.35;;;;;;;25.61;34.62;101032.94;5032407;28;20045;-66
2023/07/17 10:45:54;;;;;;;8.70;3.40;;;;;;;24.89;35.06;101013.66;5032782;28;20049;-65
2023/07/17 10:48:25;;;;;;;12.23;3.22;;;;;;;26.50;33.25;101009.00;5032869;28;20103;-65
2023/07/17 10:50:52;;;;;;;;;;;;;;;27.52;31.77;101007.09;5033063;28;20053;-65
2023/07/17 10:53:20;;;;;;;9.45;3.13;;;;;;;27.33;32.20;101009.47;5032870;28;19921;-64
2023/07/17 10:55:46;;;;;;;11.48;3.35;;;;;;;27.72;30.64;101007.19;5032040;28;20567;-66
2023/07/17 10:58:14;;;;;;;11.65;3.33;;;;;;;27.80;30.32;100996.75;5032490;28;20091;-65
2023/07/17 11:00:43;;;;;;;10.15;3.15;;;;;;;26.98;32.34;101016.34;5030640;28;20472;-64
2023/07/17 11:03:13;;;;;;;13.98;3.50;;;;;;;25.49;34.21;101012.13;5032713;28;20050;-66
2023/07/17 11:05:41;;;;;;;8.48;3.33;;;;;;;25.27;33.01;101009.31;5031974;28;20069;-65
2023/07/17 11:08:09;;;;;;;8.27;2.90;;;;;;;24.60;35.21;101005.47;5032004;28;20473;-67
2023/07/17 11:10:39;;;;;;;6.90;3.25;;;;;;;24.17;36.04;101006.00;5031775;28;20493;-65
2023/07/17 11:13:07;;;;;;;7.28;2.80;;;;;;;23.95;36.22;101000.34;5032240;28;20103;-67
2023/07/17 11:15:35;;;;;;;8.48;2.85;;;;;;;24.34;35.58;101008.81;5031326;28;20459;-65
2023/07/17 11:18:04;;;;;;;10.18;3.10;;;;;;;25.07;34.88;100996.97;5031495;28;20485;-66
2023/07/17 11:20:32;;;;;;;9.70;3.00;;;;;;;25.95;33.44;100999.84;5030612;28;20428;-66
2023/07/17 11:22:58;;;;;;;9.38;2.60;;;;;;;26.07;32.98;100994.22;5031053;28;20053;-67
2023/07/17 11:25:28;;;;;;;8.55;3.15;;;;;;;26.26;33.16;100997.47;5031287;28;20045;-67